Wilp, Netherlands
Current Conditions -  °F | °C
As of 1:25 AM on Thursday 27 Nov 2014 (Local Time) from EHDL Reporting Station
Haze Haze  
Wind Chill: 37°   Ceiling: 900
Heat Index: 43°   Visibility: 6mi
Dew Point: 39°   Wind: 10mph
Humidity: 87%   Direction: 130°SE
Pressure: 29.83"   Gusts: NA
Location:  52.22°N, 6.15°E
Report Text: EHDL 270025Z AUTO 13009KT 9000 BR OVC009 06/04 Q1010 GRN
Loading
Personal Weather Stations






























Interactive Weather Map New forecast layout! Learn more

10-Day Weather Forecast

Advertisements
Track Severe Weather on mobile